Time;durP1;ratioP1;P1;durP2;ratioP2;P2;SDS_P1;SDS_P2;PMS_P1;PMS_P2;Temp;Humidity;BMP_temperature;BMP_pressure;BME280_temperature;BME280_humidity;BME280_pressure;Samples;Min_cycle;Max_cycle;Signal;HPM_P1;HPM_P2
2023/05/10 00:00:47;;;;;;;13.18;5.85;;;13.20;99.90;;;;;;4992926;28;20499;-48
2023/05/10 00:03:13;;;;;;;11.65;5.60;;;13.20;99.90;;;;;;4992682;28;20034;-49
2023/05/10 00:05:39;;;;;;;11.57;5.55;;;13.20;99.90;;;;;;4992633;28;20121;-52
2023/05/10 00:08:04;;;;;;;13.18;5.13;;;13.20;99.90;;;;;;4992835;28;20038;-50
2023/05/10 00:10:30;;;;;;;12.90;5.80;;;13.20;99.90;;;;;;4992537;28;20161;-50
2023/05/10 00:12:56;;;;;;;12.57;5.68;;;13.30;99.90;;;;;;4992494;28;20169;-50
2023/05/10 00:15:22;;;;;;;12.05;5.30;;;13.30;99.90;;;;;;4992793;28;20030;-48
2023/05/10 00:17:47;;;;;;;11.85;5.68;;;13.30;99.90;;;;;;4992695;28;20679;-51
2023/05/10 00:20:13;;;;;;;12.40;5.25;;;13.20;99.90;;;;;;4992415;28;20028;-50
2023/05/10 00:22:39;;;;;;;10.82;5.40;;;13.20;99.90;;;;;;4992301;28;20041;-52
2023/05/10 00:25:05;;;;;;;13.73;5.55;;;13.20;99.90;;;;;;4992488;28;20049;-53
2023/05/10 00:27:31;;;;;;;14.35;6.18;;;13.10;99.90;;;;;;4992439;28;20030;-49
2023/05/10 00:29:57;;;;;;;13.48;5.38;;;13.00;99.90;;;;;;4992478;28;20435;-50
2023/05/10 00:32:23;;;;;;;13.93;5.72;;;13.00;99.90;;;;;;4990545;28;20085;-48
2023/05/10 00:34:48;;;;;;;14.70;6.38;;;12.90;99.90;;;;;;4991061;28;20042;-48
2023/05/10 00:37:14;;;;;;;14.50;5.55;;;12.90;99.90;;;;;;4992329;28;20557;-51
2023/05/10 00:39:40;;;;;;;12.95;5.20;;;12.80;99.90;;;;;;4992195;28;20030;-48
2023/05/10 00:42:05;;;;;;;13.25;5.28;;;12.80;99.90;;;;;;4991743;28;20031;-50
2023/05/10 00:44:32;;;;;;;15.00;5.45;;;12.80;99.90;;;;;;4991129;28;20406;-52
2023/05/10 00:46:58;;;;;;;15.07;6.03;;;12.80;99.90;;;;;;4991982;28;20456;-50
2023/05/10 00:49:24;;;;;;;12.35;5.65;;;12.80;99.90;;;;;;4990766;28;20034;-49
2023/05/10 00:51:50;;;;;;;14.38;6.40;;;12.70;99.90;;;;;;4990253;28;20030;-49
2023/05/10 00:54:16;;;;;;;13.50;6.00;;;12.70;99.90;;;;;;4992150;28;20076;-51
2023/05/10 00:56:43;;;;;;;14.57;6.07;;;12.70;99.90;;;;;;4990764;28;20475;-51
2023/05/10 00:59:10;;;;;;;12.48;5.72;;;12.70;99.90;;;;;;4991989;28;20030;-48
2023/05/10 01:01:36;;;;;;;14.23;6.30;;;12.70;99.90;;;;;;4991167;28;20084;-51
2023/05/10 01:04:02;;;;;;;18.60;7.57;;;12.70;99.90;;;;;;4992046;28;20049;-52
2023/05/10 01:06:29;;;;;;;16.90;7.03;;;12.70;99.90;;;;;;4991775;28;20038;-48
2023/05/10 01:08:55;;;;;;;13.68;6.30;;;12.70;99.90;;;;;;4991769;28;20033;-48
2023/05/10 01:11:21;;;;;;;16.27;6.43;;;12.70;99.90;;;;;;4991410;28;20105;-48
2023/05/10 01:13:54;;;;;;;16.73;6.68;;;12.70;99.90;;;;;;4991738;28;20049;-49
2023/05/10 01:16:20;;;;;;;19.23;6.47;;;12.70;99.90;;;;;;4991525;28;20073;-49
2023/05/10 01:18:49;;;;;;;16.73;6.90;;;12.70;99.90;;;;;;4991965;28;20117;-48
2023/05/10 01:21:31;;;;;;;17.65;6.72;;;12.70;99.90;;;;;;4991159;28;20489;-50
2023/05/10 01:24:25;;;;;;;18.35;7.10;;;12.80;99.90;;;;;;4991652;28;20045;-49
2023/05/10 01:27:05;;;;;;;17.67;6.50;;;12.80;99.90;;;;;;4991484;28;20068;-50
2023/05/10 01:29:50;;;;;;;16.55;6.50;;;12.80;99.90;;;;;;4991880;28;20033;-49
2023/05/10 01:32:31;;;;;;;15.95;6.95;;;12.70;99.90;;;;;;4991010;28;20030;-49
2023/05/10 01:35:03;;;;;;;14.90;6.32;;;12.70;99.90;;;;;;4990321;28;20030;-49
2023/05/10 01:37:40;;;;;;;14.10;6.80;;;12.70;99.90;;;;;;4990390;28;20479;-50
2023/05/10 01:40:18;;;;;;;16.35;7.05;;;12.60;99.90;;;;;;4991544;28;20489;-49
2023/05/10 01:43:01;;;;;;;16.25;7.00;;;12.60;99.90;;;;;;4990429;28;20454;-48
2023/05/10 01:45:51;;;;;;;15.27;6.95;;;12.50;99.90;;;;;;4991602;28;20042;-50
2023/05/10 01:48:19;;;;;;;17.02;6.93;;;12.50;99.90;;;;;;4991723;28;20093;-49
2023/05/10 01:50:46;;;;;;;17.17;7.43;;;12.50;99.90;;;;;;4990068;28;20038;-49
2023/05/10 01:53:13;;;;;;;18.75;7.75;;;12.50;99.90;;;;;;4989868;28;20030;-49
2023/05/10 01:55:46;;;;;;;17.08;7.03;;;12.50;99.90;;;;;;4991439;28;20058;-49
2023/05/10 01:58:29;;;;;;;18.35;8.18;;;12.60;99.90;;;;;;4990117;28;20100;-48
2023/05/10 02:00:58;;;;;;;16.70;6.95;;;12.50;99.90;;;;;;4989755;28;20030;-51
2023/05/10 02:03:27;;;;;;;16.85;6.90;;;12.50;99.90;;;;;;4991405;28;20054;-49
2023/05/10 02:05:55;;;;;;;18.77;7.38;;;12.50;99.90;;;;;;4989927;28;20498;-48
2023/05/10 02:08:23;;;;;;;15.57;6.78;;;12.50;99.90;;;;;;4991135;28;20026;-49
2023/05/10 02:10:52;;;;;;;17.23;7.18;;;12.50;99.90;;;;;;4990939;28;20046;-50
2023/05/10 02:13:19;;;;;;;17.33;6.25;;;12.50;99.90;;;;;;4989643;28;20030;-49
2023/05/10 02:15:47;;;;;;;18.83;7.35;;;12.50;99.90;;;;;;4989738;28;20030;-48
2023/05/10 02:18:15;;;;;;;18.38;7.63;;;12.50;99.90;;;;;;4989900;28;20030;-48
2023/05/10 02:20:42;;;;;;;16.70;7.15;;;12.60;99.90;;;;;;4991377;28;20092;-48
2023/05/10 02:23:09;;;;;;;21.38;8.45;;;12.60;99.90;;;;;;4989400;28;20034;-48
2023/05/10 02:25:36;;;;;;;18.95;7.65;;;12.60;99.90;;;;;;4989757;28;20491;-49
2023/05/10 02:28:05;;;;;;;17.75;7.35;;;12.60;99.90;;;;;;4991032;28;20034;-49
2023/05/10 02:30:32;;;;;;;18.35;7.45;;;12.60;99.90;;;;;;4989405;28;20030;-48
2023/05/10 02:32:59;;;;;;;21.83;7.32;;;12.60;99.90;;;;;;4990757;28;20398;-49
2023/05/10 02:35:26;;;;;;;17.52;7.38;;;12.70;99.90;;;;;;4994198;28;20026;-48
2023/05/10 02:37:53;;;;;;;18.35;7.72;;;12.70;99.90;;;;;;4993330;28;20041;-48
2023/05/10 02:40:21;;;;;;;18.27;7.60;;;12.70;99.90;;;;;;4993097;28;20023;-48
2023/05/10 02:42:50;;;;;;;20.60;7.90;;;12.70;99.90;;;;;;4994216;28;20043;-49
2023/05/10 02:45:19;;;;;;;;;;;12.70;99.90;;;;;;4995109;28;20045;-50
2023/05/10 02:47:45;;;;;;;15.82;6.43;;;12.70;99.90;;;;;;4994452;28;19910;-48
2023/05/10 02:50:11;;;;;;;15.80;7.20;;;12.70;99.90;;;;;;4992795;28;20044;-49
2023/05/10 02:52:49;;;;;;;16.17;7.22;;;12.70;99.90;;;;;;4992892;28;20034;-48
2023/05/10 02:55:19;;;;;;;17.45;6.43;;;12.70;99.90;;;;;;4994725;28;20495;-48
2023/05/10 02:57:59;;;;;;;16.13;6.53;;;12.70;99.90;;;;;;4992960;28;20034;-50
2023/05/10 03:00:25;;;;;;;16.58;6.65;;;12.70;99.90;;;;;;4993830;28;20037;-48
2023/05/10 03:02:51;;;;;;;15.00;6.28;;;12.70;99.90;;;;;;4992635;28;20406;-49
2023/05/10 03:05:17;;;;;;;17.98;7.00;;;12.70;99.90;;;;;;4994070;28;20531;-51
2023/05/10 03:07:44;;;;;;;18.80;6.85;;;12.70;99.90;;;;;;4992953;28;20126;-49
2023/05/10 03:10:11;;;;;;;17.27;7.05;;;12.70;99.90;;;;;;4988284;28;20386;-50
2023/05/10 03:13:00;;;;;;;14.70;6.20;;;12.70;99.90;;;;;;4992366;28;20034;-48
2023/05/10 03:15:35;;;;;;;15.05;6.82;;;12.70;99.90;;;;;;4987227;28;20031;-50
2023/05/10 03:18:09;;;;;;;17.45;7.72;;;12.70;99.90;;;;;;4988066;28;20022;-49
2023/05/10 03:20:42;;;;;;;17.52;7.05;;;12.70;99.90;;;;;;4986694;28;20031;-50
2023/05/10 03:23:17;;;;;;;15.63;7.15;;;12.80;99.90;;;;;;4994921;28;20129;-51
2023/05/10 03:25:46;;;;;;;16.30;6.65;;;12.80;99.90;;;;;;5001141;28;20026;-49
2023/05/10 03:28:15;;;;;;;17.27;7.70;;;12.80;99.90;;;;;;5005279;28;20390;-50
2023/05/10 03:30:42;;;;;;;;;;;12.80;99.90;;;;;;4998311;28;20419;-49
2023/05/10 03:33:10;;;;;;;20.75;7.20;;;12.80;99.90;;;;;;5006236;28;20329;-49
2023/05/10 03:35:39;;;;;;;18.67;7.57;;;12.80;99.90;;;;;;4997753;28;20025;-50
2023/05/10 03:38:05;;;;;;;18.95;7.50;;;12.80;99.90;;;;;;4997576;28;20367;-50
2023/05/10 03:40:32;;;;;;;16.40;6.75;;;12.80;99.90;;;;;;4998730;28;20025;-49
2023/05/10 03:42:59;;;;;;;18.65;7.80;;;12.90;99.90;;;;;;4995046;28;20186;-51
2023/05/10 03:45:26;;;;;;;16.77;7.28;;;12.80;99.90;;;;;;4989197;28;20498;-48
2023/05/10 03:47:51;;;;;;;16.80;6.85;;;12.90;99.90;;;;;;5000113;28;20462;-50
2023/05/10 03:50:18;;;;;;;18.95;8.02;;;12.90;99.90;;;;;;5002707;28;20033;-49
2023/05/10 03:52:44;;;;;;;18.35;7.93;;;12.90;99.90;;;;;;4988749;28;20037;-48
2023/05/10 03:55:10;;;;;;;19.00;7.78;;;12.90;99.90;;;;;;5004233;28;20026;-51
2023/05/10 03:57:37;;;;;;;18.27;7.38;;;12.90;99.90;;;;;;5001594;28;20029;-49
2023/05/10 04:00:03;;;;;;;16.65;7.53;;;12.90;99.90;;;;;;5001969;28;20030;-48
2023/05/10 04:02:40;;;;;;;19.95;8.20;;;12.90;99.90;;;;;;5000498;28;20502;-49
2023/05/10 04:05:07;;;;;;;19.70;7.80;;;12.90;99.90;;;;;;4993752;28;20025;-48
2023/05/10 04:07:33;;;;;;;19.20;8.13;;;12.90;99.90;;;;;;5009436;28;20475;-48
2023/05/10 04:09:59;;;;;;;18.75;8.05;;;13.00;99.90;;;;;;5001965;28;20033;-53
2023/05/10 04:12:24;;;;;;;21.45;8.50;;;13.00;99.90;;;;;;4999532;28;20144;-52
2023/05/10 04:14:50;;;;;;;20.75;8.57;;;12.90;99.90;;;;;;5001706;28;20031;-52
2023/05/10 04:17:16;;;;;;;18.15;7.50;;;13.00;99.90;;;;;;5001929;28;20037;-51
2023/05/10 04:19:42;;;;;;;22.23;9.15;;;13.00;99.90;;;;;;5000269;28;20037;-48
2023/05/10 04:22:08;;;;;;;21.02;8.77;;;13.00;99.90;;;;;;4997819;28;20156;-52
2023/05/10 04:24:34;;;;;;;24.27;9.38;;;13.00;99.90;;;;;;4996985;28;20029;-50
2023/05/10 04:27:00;;;;;;;28.73;10.70;;;13.00;99.90;;;;;;5001467;28;20028;-50
2023/05/10 04:29:26;;;;;;;19.42;9.02;;;13.00;99.90;;;;;;5009946;28;20030;-49
2023/05/10 04:31:53;;;;;;;25.63;10.38;;;13.00;99.90;;;;;;4993911;28;20117;-50
2023/05/10 04:34:20;;;;;;;29.52;9.75;;;13.00;99.90;;;;;;4996425;28;20398;-49
2023/05/10 04:36:46;;;;;;;23.35;9.60;;;13.10;99.90;;;;;;4997867;28;20037;-49
2023/05/10 04:39:12;;;;;;;23.60;10.38;;;13.10;99.90;;;;;;4995013;28;20394;-50
2023/05/10 04:41:38;;;;;;;23.80;10.23;;;13.10;99.90;;;;;;4992023;28;20029;-52
2023/05/10 04:44:04;;;;;;;26.63;9.95;;;13.10;99.90;;;;;;4998366;28;20030;-51
2023/05/10 04:46:29;;;;;;;25.40;10.48;;;13.10;99.90;;;;;;4989844;28;20050;-49
2023/05/10 04:48:55;;;;;;;28.02;10.85;;;13.10;99.90;;;;;;5001407;28;20037;-49
2023/05/10 04:51:21;;;;;;;24.42;10.40;;;13.20;99.90;;;;;;5001626;28;20423;-48
2023/05/10 04:53:46;;;;;;;25.58;11.50;;;13.20;99.90;;;;;;4991356;28;20022;-50
2023/05/10 04:56:12;;;;;;;25.55;11.00;;;13.30;99.90;;;;;;4994335;28;20058;-49
2023/05/10 04:58:38;;;;;;;26.15;11.32;;;13.30;99.90;;;;;;5008551;28;20082;-50
2023/05/10 05:01:08;;;;;;;26.55;12.35;;;13.30;99.90;;;;;;5001290;28;20045;-49
2023/05/10 05:03:34;;;;;;;26.67;11.02;;;13.30;99.90;;;;;;5000687;28;20117;-49
2023/05/10 05:05:59;;;;;;;24.60;11.05;;;13.30;99.90;;;;;;5000914;28;20029;-48
2023/05/10 05:08:25;;;;;;;24.65;10.30;;;13.30;99.90;;;;;;5008209;28;20073;-49
2023/05/10 05:10:51;;;;;;;23.17;10.57;;;13.30;99.90;;;;;;4991293;28;20045;-50
2023/05/10 05:13:17;;;;;;;25.25;10.70;;;13.30;99.90;;;;;;4989851;28;20046;-50
2023/05/10 05:15:42;;;;;;;25.23;11.55;;;13.20;99.90;;;;;;4989259;28;20053;-51
2023/05/10 05:18:08;;;;;;;27.30;11.27;;;13.20;99.90;;;;;;5005115;28;20177;-52
2023/05/10 05:20:34;;;;;;;25.45;11.02;;;13.20;99.90;;;;;;4997797;28;20029;-50
2023/05/10 05:23:00;;;;;;;26.05;11.13;;;13.20;99.90;;;;;;5009212;28;20025;-50
2023/05/10 05:25:26;;;;;;;26.05;10.98;;;13.30;99.90;;;;;;5002472;28;20034;-49
2023/05/10 05:27:52;;;;;;;26.05;10.95;;;13.30;99.90;;;;;;4997558;28;20037;-49
2023/05/10 05:30:17;;;;;;;26.08;10.50;;;13.30;99.90;;;;;;4989817;28;20293;-49
2023/05/10 05:32:43;;;;;;;24.45;10.55;;;13.20;99.90;;;;;;4996865;28;20096;-49
2023/05/10 05:35:09;;;;;;;28.33;11.95;;;13.30;99.90;;;;;;4988646;28;20051;-48
2023/05/10 05:37:35;;;;;;;28.75;11.20;;;13.30;99.90;;;;;;4995852;28;20390;-51
2023/05/10 05:40:01;;;;;;;27.08;12.38;;;13.30;99.90;;;;;;4997101;28;20105;-48
2023/05/10 05:42:27;;;;;;;26.80;12.07;;;13.30;99.90;;;;;;5003454;28;20048;-48
2023/05/10 05:44:53;;;;;;;25.95;11.52;;;13.30;99.90;;;;;;5000155;28;20058;-48
2023/05/10 05:47:18;;;;;;;29.38;12.13;;;13.30;99.90;;;;;;5002601;28;20118;-49
2023/05/10 05:49:47;;;;;;;29.73;12.35;;;13.30;99.90;;;;;;5005967;28;20112;-49
2023/05/10 05:52:13;;;;;;;27.08;11.00;;;13.40;99.90;;;;;;5007793;28;20312;-49
2023/05/10 05:54:39;;;;;;;27.10;10.50;;;13.40;99.90;;;;;;4999849;28;20037;-49
2023/05/10 05:57:04;;;;;;;29.63;12.43;;;13.40;99.90;;;;;;4988593;28;20031;-48
2023/05/10 05:59:30;;;;;;;27.88;10.57;;;13.50;99.90;;;;;;4995879;28;20352;-49
2023/05/10 06:01:56;;;;;;;31.02;11.82;;;13.40;99.90;;;;;;4999610;28;20108;-50
2023/05/10 06:04:21;;;;;;;32.67;11.40;;;13.40;99.90;;;;;;5008193;28;20309;-51
2023/05/10 06:06:47;;;;;;;30.85;11.57;;;13.40;99.90;;;;;;4998451;28;20049;-49
2023/05/10 06:09:13;;;;;;;33.78;13.10;;;13.40;99.90;;;;;;4996480;28;20125;-49
2023/05/10 06:11:39;;;;;;;34.28;12.07;;;13.40;99.90;;;;;;5003102;28;20037;-52
2023/05/10 06:14:06;;;;;;;35.20;13.35;;;13.40;99.90;;;;;;5007956;28;20391;-49
2023/05/10 06:16:33;;;;;;;33.08;13.65;;;13.40;99.90;;;;;;4999818;28;20053;-52
2023/05/10 06:18:58;;;;;;;32.25;13.05;;;13.50;99.90;;;;;;5008232;28;20359;-50
2023/05/10 06:21:24;;;;;;;37.22;13.55;;;13.50;99.90;;;;;;4997901;28;20022;-50
2023/05/10 06:23:50;;;;;;;34.47;13.75;;;13.50;99.90;;;;;;5002641;28;20041;-49
2023/05/10 06:26:15;;;;;;;37.35;13.95;;;13.60;99.90;;;;;;5011902;28;20034;-49
2023/05/10 06:28:41;;;;;;;33.45;12.90;;;13.60;99.90;;;;;;5003031;28;20037;-50
2023/05/10 06:31:07;;;;;;;36.53;14.48;;;13.70;99.90;;;;;;4999949;28;20100;-56
2023/05/10 06:33:33;;;;;;;39.75;14.88;;;13.70;99.90;;;;;;5002668;28;20026;-50
2023/05/10 06:35:59;;;;;;;41.45;13.63;;;13.70;99.90;;;;;;5008485;28;20032;-48
2023/05/10 06:38:25;;;;;;;35.45;14.10;;;13.80;99.90;;;;;;5001177;28;20133;-51
2023/05/10 06:40:51;;;;;;;41.40;13.13;;;13.70;99.90;;;;;;5001296;28;20109;-49
2023/05/10 06:43:17;;;;;;;36.92;13.50;;;13.70;99.90;;;;;;4994400;28;20034;-49
2023/05/10 06:45:43;;;;;;;33.83;12.25;;;13.80;99.90;;;;;;4995004;28;20105;-48
2023/05/10 06:48:09;;;;;;;32.78;13.45;;;13.80;99.90;;;;;;4997620;28;20467;-51
2023/05/10 06:50:35;;;;;;;33.83;13.13;;;13.80;99.90;;;;;;5003447;28;20026;-50
2023/05/10 06:53:03;;;;;;;32.33;12.52;;;13.80;99.90;;;;;;5000849;28;20427;-53
2023/05/10 06:55:29;;;;;;;36.60;13.68;;;13.80;99.90;;;;;;5004197;28;20022;-51
2023/05/10 06:57:55;;;;;;;28.83;11.88;;;13.80;99.90;;;;;;5002215;28;20096;-52
2023/05/10 07:00:21;;;;;;;33.20;12.88;;;13.80;99.90;;;;;;4992307;28;20034;-50
2023/05/10 07:02:47;;;;;;;35.67;13.07;;;13.80;99.90;;;;;;5006931;28;20040;-49
2023/05/10 07:05:13;;;;;;;33.83;13.15;;;13.80;99.90;;;;;;4995120;28;20033;-50
2023/05/10 07:07:39;;;;;;;30.48;11.38;;;13.80;99.90;;;;;;5002369;28;20053;-49
2023/05/10 07:10:06;;;;;;;30.05;12.52;;;13.80;99.90;;;;;;4996695;28;20398;-49
2023/05/10 07:12:32;;;;;;;30.30;11.98;;;13.70;99.90;;;;;;5003621;28;20033;-53
2023/05/10 07:14:58;;;;;;;34.30;12.57;;;13.80;99.90;;;;;;5009527;28;20434;-49
2023/05/10 07:17:24;;;;;;;28.52;12.07;;;13.80;99.90;;;;;;4998039;28;20033;-47
2023/05/10 07:19:50;;;;;;;32.80;12.93;;;13.80;99.90;;;;;;5000868;28;20038;-49
2023/05/10 07:22:16;;;;;;;28.55;11.30;;;13.80;99.90;;;;;;4996063;28;20892;-49
2023/05/10 07:24:43;;;;;;;30.70;12.13;;;13.80;99.90;;;;;;5002902;28;20029;-48
2023/05/10 07:27:09;;;;;;;32.15;11.90;;;13.90;99.90;;;;;;5001994;28;20045;-51
2023/05/10 07:29:35;;;;;;;26.27;11.25;;;13.90;99.90;;;;;;5001595;28;20195;-50
2023/05/10 07:32:01;;;;;;;28.02;11.65;;;13.80;99.90;;;;;;4995662;28;20100;-52
2023/05/10 07:34:27;;;;;;;28.75;10.70;;;13.90;99.90;;;;;;4993923;28;20117;-49
2023/05/10 07:36:53;;;;;;;23.75;9.73;;;13.90;99.90;;;;;;4994641;28;20030;-49
2023/05/10 07:39:20;;;;;;;23.85;9.90;;;14.00;99.90;;;;;;4994899;28;20071;-51
2023/05/10 07:41:46;;;;;;;25.75;9.52;;;14.00;99.90;;;;;;4994102;28;20097;-51
2023/05/10 07:44:11;;;;;;;22.30;9.27;;;14.20;99.90;;;;;;4994830;28;20030;-49
2023/05/10 07:46:37;;;;;;;25.23;10.63;;;14.30;99.90;;;;;;4994696;28;20148;-49
2023/05/10 07:49:03;;;;;;;25.08;10.88;;;14.30;99.90;;;;;;4994656;28;20065;-48
2023/05/10 07:51:29;;;;;;;28.92;11.35;;;14.40;99.90;;;;;;4994003;28;20173;-52
2023/05/10 07:53:55;;;;;;;24.50;10.60;;;14.40;99.90;;;;;;4993919;28;20030;-49
2023/05/10 07:56:26;;;;;;;28.05;11.00;;;14.40;99.90;;;;;;4994175;28;20026;-48
2023/05/10 07:58:52;;;;;;;30.10;11.77;;;14.40;99.90;;;;;;4993873;28;20034;-48
2023/05/10 08:01:17;;;;;;;25.50;11.43;;;14.40;99.90;;;;;;4992981;28;20034;-50
2023/05/10 08:03:43;;;;;;;24.08;10.52;;;14.30;99.90;;;;;;4993371;28;20022;-49
2023/05/10 08:06:09;;;;;;;23.08;10.93;;;14.30;99.90;;;;;;4993656;28;20039;-50
2023/05/10 08:08:35;;;;;;;22.63;10.00;;;14.30;99.90;;;;;;4993548;28;20093;-52
2023/05/10 08:11:00;;;;;;;28.15;10.98;;;14.40;99.90;;;;;;4993038;28;20041;-48
2023/05/10 08:13:26;;;;;;;26.77;10.07;;;14.40;99.90;;;;;;4993325;28;20117;-51
2023/05/10 08:15:52;;;;;;;33.35;11.80;;;14.40;99.90;;;;;;4993412;28;20018;-50
2023/05/10 08:18:19;;;;;;;38.95;15.63;;;14.60;99.90;;;;;;4993506;28;20030;-50
2023/05/10 08:20:45;;;;;;;36.38;15.50;;;14.70;99.90;;;;;;4993171;28;20030;-50
2023/05/10 08:23:13;;;;;;;34.80;12.23;;;14.80;99.90;;;;;;4992823;28;20416;-50
2023/05/10 08:25:38;;;;;;;38.28;14.90;;;15.00;99.90;;;;;;4993276;28;20553;-49
2023/05/10 08:28:04;;;;;;;34.15;12.88;;;14.90;99.90;;;;;;4993275;28;20042;-52
2023/05/10 08:30:30;;;;;;;35.00;14.93;;;15.00;99.90;;;;;;4993154;28;20372;-52
2023/05/10 08:32:56;;;;;;;29.33;12.02;;;15.00;99.90;;;;;;4991976;28;20038;-50
2023/05/10 08:35:21;;;;;;;29.35;11.48;;;14.90;99.90;;;;;;4993249;28;20121;-49
2023/05/10 08:37:47;;;;;;;29.30;11.32;;;14.90;99.90;;;;;;4992828;28;20022;-49
2023/05/10 08:40:15;;;;;;;27.08;10.55;;;14.90;99.90;;;;;;4992818;28;20089;-50
2023/05/10 08:42:49;;;;;;;30.48;11.70;;;15.00;99.90;;;;;;4992586;28;20038;-51
2023/05/10 08:45:17;;;;;;;30.88;11.30;;;15.00;99.90;;;;;;4992683;28;20030;-48
2023/05/10 08:47:43;;;;;;;28.73;11.38;;;15.10;99.90;;;;;;4992734;28;20034;-52
2023/05/10 08:50:10;;;;;;;28.88;10.57;;;15.40;99.90;;;;;;4992688;28;20375;-49
2023/05/10 08:52:41;;;;;;;27.60;10.93;;;15.40;99.90;;;;;;4992195;28;20034;-50
2023/05/10 08:55:07;;;;;;;27.10;11.27;;;15.40;99.90;;;;;;4992743;28;20037;-48
2023/05/10 08:57:33;;;;;;;26.13;10.73;;;15.40;99.90;;;;;;4992807;28;20022;-48
2023/05/10 09:00:01;;;;;;;25.63;10.82;;;15.30;99.90;;;;;;4992273;28;20479;-48
2023/05/10 09:02:26;;;;;;;27.95;11.18;;;15.20;99.90;;;;;;4992173;28;20034;-47
2023/05/10 09:04:52;;;;;;;27.60;11.68;;;15.10;99.90;;;;;;4992392;28;20026;-49
2023/05/10 09:07:19;;;;;;;24.23;9.48;;;15.00;99.90;;;;;;4992179;28;20360;-50
2023/05/10 09:09:46;;;;;;;24.52;10.68;;;15.10;99.90;;;;;;4992495;28;20037;-48
2023/05/10 09:12:13;;;;;;;24.70;10.07;;;15.10;99.90;;;;;;4992048;28;20026;-52
2023/05/10 09:14:39;;;;;;;20.58;8.73;;;15.20;99.90;;;;;;4992338;28;20033;-48
2023/05/10 09:17:05;;;;;;;22.88;9.88;;;15.20;99.90;;;;;;4992418;28;20031;-48
2023/05/10 09:19:31;;;;;;;20.73;8.52;;;15.20;99.90;;;;;;4992530;28;20396;-50
2023/05/10 09:21:56;;;;;;;19.40;9.00;;;15.20;99.90;;;;;;4991900;28;20038;-48
2023/05/10 09:24:26;;;;;;;21.40;9.52;;;15.20;99.90;;;;;;4992174;28;20036;-49
2023/05/10 09:26:52;;;;;;;20.73;8.95;;;15.10;99.90;;;;;;4992318;28;20057;-50
2023/05/10 09:29:18;;;;;;;24.05;9.55;;;15.20;99.90;;;;;;4992009;28;20070;-50
2023/05/10 09:31:46;;;;;;;20.90;8.27;;;15.20;99.90;;;;;;4991791;28;20061;-50
2023/05/10 09:34:16;;;;;;;19.00;9.20;;;15.20;99.90;;;;;;4992053;28;20384;-50
2023/05/10 09:36:56;;;;;;;19.45;8.30;;;15.20;99.90;;;;;;4992103;28;20034;-52
2023/05/10 09:39:30;;;;;;;21.48;9.20;;;15.10;99.90;;;;;;4992370;28;20022;-49
2023/05/10 09:41:57;;;;;;;18.42;8.75;;;15.10;99.90;;;;;;4991302;28;20040;-49
2023/05/10 09:44:23;;;;;;;17.80;8.10;;;15.00;99.90;;;;;;4991821;28;20041;-50
2023/05/10 09:46:50;;;;;;;15.77;8.00;;;15.00;99.90;;;;;;4992056;28;20034;-51
2023/05/10 09:49:16;;;;;;;14.95;7.80;;;15.00;99.90;;;;;;4991932;28;20037;-52
2023/05/10 09:51:42;;;;;;;17.02;7.88;;;15.10;99.90;;;;;;4991497;28;20050;-48
2023/05/10 09:54:13;;;;;;;18.50;7.85;;;15.10;99.90;;;;;;4991697;28;20483;-50
2023/05/10 09:56:40;;;;;;;20.02;8.57;;;15.20;99.90;;;;;;4991867;28;20030;-51
2023/05/10 09:59:10;;;;;;;14.90;7.53;;;15.20;99.90;;;;;;4992198;28;20038;-48
2023/05/10 10:01:36;;;;;;;21.73;10.27;;;15.20;99.90;;;;;;4991837;28;20037;-48
2023/05/10 10:04:07;;;;;;;22.95;11.82;;;15.30;99.90;;;;;;4991829;28;20026;-50
2023/05/10 10:06:37;;;;;;;17.83;7.78;;;15.20;99.90;;;;;;4991498;28;20041;-48
2023/05/10 10:09:04;;;;;;;21.35;9.32;;;15.10;99.90;;;;;;4991469;28;20034;-51
2023/05/10 10:11:30;;;;;;;19.50;9.10;;;14.90;99.90;;;;;;4991117;28;20112;-49
2023/05/10 10:13:56;;;;;;;17.23;8.05;;;14.70;99.90;;;;;;4991798;28;20487;-48
2023/05/10 10:16:22;;;;;;;16.85;8.32;;;14.70;99.90;;;;;;4991835;28;20037;-49
2023/05/10 10:18:49;;;;;;;17.83;8.13;;;14.60;99.90;;;;;;4991695;28;20034;-49
2023/05/10 10:21:15;;;;;;;18.30;7.95;;;14.60;99.90;;;;;;4991496;28;20037;-49
2023/05/10 10:23:41;;;;;;;17.23;7.57;;;14.60;99.90;;;;;;4991889;28;20125;-51
2023/05/10 10:26:07;;;;;;;15.35;7.18;;;14.70;99.90;;;;;;4992038;28;20038;-49
2023/05/10 10:29:08;;;;;;;16.27;7.55;;;14.80;99.90;;;;;;4992030;28;20112;-48
2023/05/10 10:32:07;;;;;;;18.40;8.25;;;14.80;99.90;;;;;;4991885;28;20030;-48
2023/05/10 10:34:33;;;;;;;17.25;7.40;;;14.90;99.90;;;;;;4991590;28;20121;-49
2023/05/10 10:37:05;;;;;;;17.10;7.88;;;14.80;99.90;;;;;;4992027;28;20033;-48
2023/05/10 10:39:31;;;;;;;16.15;7.22;;;14.80;99.90;;;;;;4991979;28;20118;-48
2023/05/10 10:41:58;;;;;;;19.45;8.80;;;14.80;99.90;;;;;;4991185;28;20368;-48
2023/05/10 10:44:25;;;;;;;20.60;8.85;;;14.80;99.90;;;;;;4990811;28;20038;-49
2023/05/10 10:47:22;;;;;;;17.55;8.50;;;14.90;99.90;;;;;;4991560;28;20027;-49
2023/05/10 10:50:08;;;;;;;17.20;7.53;;;15.00;99.90;;;;;;4991569;28;20411;-48
2023/05/10 10:52:38;;;;;;;18.27;8.15;;;15.00;99.90;;;;;;4991434;28;20042;-51
2023/05/10 10:55:07;;;;;;;18.63;8.65;;;14.90;99.90;;;;;;4993358;28;20037;-49
2023/05/10 10:57:44;;;;;;;20.55;9.15;;;14.80;99.90;;;;;;4995153;28;20076;-48
2023/05/10 11:00:30;;;;;;;26.95;9.88;;;14.70;99.90;;;;;;4995157;28;20035;-49
2023/05/10 11:02:59;;;;;;;21.00;9.93;;;14.60;99.90;;;;;;4994262;28;20042;-48
2023/05/10 11:05:35;;;;;;;23.33;9.80;;;14.50;99.90;;;;;;4994933;28;20058;-49
2023/05/10 11:08:10;;;;;;;25.65;10.85;;;14.40;99.90;;;;;;4995549;28;20034;-49
2023/05/10 11:10:36;;;;;;;21.50;10.02;;;14.40;99.90;;;;;;4994565;28;20034;-49
2023/05/10 11:13:06;;;;;;;21.42;9.57;;;14.40;99.90;;;;;;4994722;28;20030;-49
2023/05/10 11:15:39;;;;;;;20.98;8.80;;;14.50;99.90;;;;;;4994508;28;20058;-49
2023/05/10 11:18:26;;;;;;;19.17;8.80;;;14.60;99.90;;;;;;4994722;28;20472;-52
2023/05/10 11:21:09;;;;;;;17.15;8.38;;;14.70;99.90;;;;;;4994594;28;20117;-51
2023/05/10 11:23:56;;;;;;;16.13;8.20;;;14.90;99.90;;;;;;4994285;28;20034;-51
2023/05/10 11:26:25;;;;;;;17.45;7.55;;;15.10;99.90;;;;;;4994805;28;20034;-49
2023/05/10 11:28:53;;;;;;;17.48;8.85;;;15.30;99.90;;;;;;4994622;28;20030;-51
2023/05/10 11:31:20;;;;;;;15.88;8.32;;;15.50;99.90;;;;;;4993901;28;20495;-49
2023/05/10 11:33:47;;;;;;;13.98;7.70;;;15.60;99.90;;;;;;4994501;28;20092;-52
2023/05/10 11:36:15;;;;;;;14.98;6.82;;;15.60;99.90;;;;;;4994283;28;20042;-50
2023/05/10 11:38:41;;;;;;;12.20;6.40;;;15.60;99.90;;;;;;4994428;28;20037;-50
2023/05/10 11:41:12;;;;;;;11.02;5.72;;;15.70;99.90;;;;;;4993565;28;20126;-50
2023/05/10 11:43:39;;;;;;;12.20;6.22;;;15.70;99.90;;;;;;4994161;28;20036;-53
2023/05/10 11:46:10;;;;;;;13.38;6.47;;;15.70;99.90;;;;;;4994007;28;20034;-50
2023/05/10 11:48:39;;;;;;;11.43;5.90;;;15.80;99.90;;;;;;4993795;28;20104;-50
2023/05/10 11:51:07;;;;;;;9.35;5.35;;;15.80;99.90;;;;;;4993437;28;20037;-49
2023/05/10 11:53:33;;;;;;;10.63;5.55;;;15.80;99.90;;;;;;4993785;28;20042;-49
2023/05/10 11:56:06;;;;;;;7.90;4.95;;;15.70;99.90;;;;;;4994320;28;20034;-50
2023/05/10 11:58:32;;;;;;;5.78;3.85;;;15.80;99.90;;;;;;4993686;28;20022;-49
2023/05/10 12:01:00;;;;;;;6.72;3.92;;;15.90;99.90;;;;;;4993779;28;20049;-52
2023/05/10 12:03:29;;;;;;;5.80;3.33;;;15.90;99.90;;;;;;4993726;28;20046;-49
2023/05/10 12:05:56;;;;;;;6.63;4.15;;;16.00;99.90;;;;;;4993684;28;20061;-53
2023/05/10 12:08:24;;;;;;;8.85;4.25;;;16.00;99.90;;;;;;4993908;28;20076;-49
2023/05/10 12:10:50;;;;;;;7.30;4.13;;;15.90;99.90;;;;;;4993734;28;20034;-49
2023/05/10 12:13:17;;;;;;;7.40;4.13;;;15.90;99.90;;;;;;4993637;28;20038;-50
2023/05/10 12:15:44;;;;;;;7.55;4.07;;;15.90;99.90;;;;;;4993850;28;20038;-50
2023/05/10 12:18:11;;;;;;;8.18;3.90;;;15.90;99.90;;;;;;4993683;28;20027;-54
2023/05/10 12:20:38;;;;;;;6.22;3.42;;;15.90;99.90;;;;;;4993401;28;20034;-51
2023/05/10 12:23:05;;;;;;;7.05;3.80;;;16.00;99.90;;;;;;4993203;28;20037;-50
2023/05/10 12:25:35;;;;;;;8.30;3.97;;;16.10;99.90;;;;;;4993186;28;20045;-50
2023/05/10 12:28:04;;;;;;;7.35;3.90;;;16.20;99.90;;;;;;4993649;28;20118;-49
2023/05/10 12:30:32;;;;;;;6.75;3.75;;;16.10;99.90;;;;;;4993127;28;20036;-49
2023/05/10 12:33:09;;;;;;;7.32;4.18;;;16.10;99.90;;;;;;4993058;28;20041;-49
2023/05/10 12:35:45;;;;;;;7.85;4.47;;;16.20;99.90;;;;;;4993328;28;20034;-49
2023/05/10 12:38:45;;;;;;;10.52;4.78;;;16.20;99.90;;;;;;4993240;28;20034;-51